(°C)
14°
14°
14°
14°
13°
12°
11°
(°C)
ССЗ
ССЗ
ССЗ
ССЗ
ССЗ
ССЗ
ЗСЗ
(км/ч)
23-35
22-34
21-33
19-30
16-26
10-17
7-16
(мм)
0
0
0
0
0
0
0
(%)
1
1
1
1
1
1
1

Высота солнцестояния

/ 34.4°
sun-icon
UV 2
06:47
19:04
Убывающая луна (198°)
19:54
08:05

METAR для 50.1°С 14.27°В (LKPR)

Время Условия Температура/
Точка росы
Ветер Видимость Погода Облачность Давление Изменить Необработанный
VFR 14°C / 6°C 330º 11kt >10km - Scattered Clouds 3500ft 1026 No Significant change LKPR 221230Z 33011KT 9999 SCT035 SCT045 14/06 Q1026 NOSIG
VFR 15°C / 7°C 320º variable 290º to 350º 13kt >10km - Scattered Clouds 3300ft 1026 No Significant change LKPR 221200Z 32013KT 290V350 9999 SCT033 SCT043 15/07 Q1026 NOSIG
VFR 14°C / 7°C 330º variable 290º to 350º 14kt >10km - Scattered Clouds 3300ft 1026 No Significant change LKPR 221130Z 33014KT 290V350 9999 SCT033 SCT040 14/07 Q1026 NOSIG
VFR 14°C / 7°C 320º 13kt >10km - Scattered Clouds 3300ft 1026 No Significant change LKPR 221100Z 32013KT 9999 SCT033 SCT040 14/07 Q1026 NOSIG
VFR 13°C / 7°C 320º 13kt >10km - Scattered Clouds 3200ft 1026 No Significant change LKPR 221030Z 32013KT 9999 SCT032 BKN040 13/07 Q1026 NOSIG
MVFR 13°C / 7°C 320º 12kt >10km - Broken Clouds 3000ft 1026 No Significant change LKPR 221000Z 32012KT 9999 BKN030 BKN040 13/07 Q1026 NOSIG
VFR 13°C / 7°C 320º variable 290º to 350º 13kt >10km - Scattered Clouds 2500ft 1026 No Significant change LKPR 220930Z 32013KT 290V350 9999 SCT025 BKN036 13/07 Q1026 NOSIG
MVFR 13°C / 7°C 320º 14kt >10km - Scattered Clouds 2300ft 1026 No Significant change LKPR 220900Z 32014KT 9999 SCT023 BKN030 13/07 Q1026 NOSIG
MVFR 13°C / 8°C 310º 14kt >10km - Scattered Clouds 2300ft 1026 No Significant change LKPR 220830Z 31014KT 9999 SCT023 BKN028 13/08 Q1026 NOSIG
MVFR 12°C / 8°C 320º 13kt >10km - Scattered Clouds 2000ft 1026 No Significant change LKPR 220800Z 32013KT 9999 SCT020 BKN028 12/08 Q1026 NOSIG
MVFR 12°C / 8°C 300º variable 270º to 330º 10kt >10km - Scattered Clouds 2000ft 1026 No Significant change LKPR 220730Z 30010KT 270V330 9999 SCT020 BKN028 12/08 Q1026 NOSIG
MVFR 12°C / 9°C 300º 10kt >10km - Scattered Clouds 2200ft 1025 No Significant change LKPR 220700Z 30010KT 9999 SCT022 BKN030 12/09 Q1025 NOSIG
MVFR 11°C / 8°C 300º 10kt >10km Light Showers Rain 3.00mm precipitation Vertical Visibility of 0ft. 1025 No Significant change LKPR 220630Z 30010KT 9999 -SHRA SCT019 BKN027 11/08 Q1025 NOSIG
MVFR 11°C / 8°C 300º 10kt >10km Light Showers Rain 3.00mm precipitation Vertical Visibility of 0ft. 1025 - LKPR 220624Z 30010KT 9999 -SHRA SCT020 BKN027 11/08 Q1025 RMK REG QNH 1020
VFR 11°C / 8°C 300º 11kt >10km - Scattered Clouds 2500ft 1025 No Significant change LKPR 220600Z 30011KT 9999 SCT025 BKN035 11/08 Q1025 NOSIG
VFR 11°C / 8°C 300º 12kt >10km - Few Clouds 2500ft 1025 No Significant change LKPR 220530Z 30012KT 9999 FEW025 11/08 Q1025 NOSIG
VFR 11°C / 8°C 300º 10kt >10km - Few Clouds 2500ft 1024 No Significant change LKPR 220500Z 30010KT 9999 FEW025 SCT048 11/08 Q1024 NOSIG
VFR 11°C / 8°C 290º 12kt >10km - Few Clouds 1900ft 1024 - LKPR 220438Z 29012KT 9999 FEW019 SCT025 BKN040 11/08 Q1024 RMK REG QNH 1020
MVFR 11°C / 8°C 290º 12kt >10km - Broken Clouds 1800ft 1024 No Significant change LKPR 220430Z 29012KT 9999 BKN018 BKN040 11/08 Q1024 NOSIG
MVFR 11°C / 8°C 280º 11kt >10km Light Rain 1.00mm precipitation Vertical Visibility of 0ft. 1024 - LKPR 220411Z 28011KT 9999 -RA BKN018 BKN025 11/08 Q1024 RMK REG QNH 1020
MVFR 11°C / 8°C 290º 10kt >10km - Broken Clouds 1800ft 1024 No Significant change LKPR 220400Z 29010KT 9999 BKN018 BKN028 11/08 Q1024 NOSIG
MVFR 11°C / 8°C 290º 9kt >10km - Broken Clouds 1800ft 1024 - LKPR 220352Z 29009KT 9999 BKN018 BKN025 11/08 Q1024 RMK REG QNH 1020
MVFR 11°C / 8°C 290º 9kt >10km - Few Clouds 1600ft 1024 - LKPR 220342Z 29009KT 9999 FEW016 BKN022 OVC040 11/08 Q1024 RMK REG QNH 1020
MVFR 11°C / 8°C 290º variable 260º to 320º 11kt >10km Light Rain 1.00mm precipitation Vertical Visibility of 0ft. 1024 Temporary: Broken Clouds 1200ft. LKPR 220330Z 29011KT 260V320 9999 -RA BKN018 OVC022 11/08 Q1024 TEMPO BKN012

VFR

14°C / 6°C

[Больше]
Ветер 330º 11kt
Видимость >10km
Погода -
Облачность Scattered Clouds 3500ft
Давление 1026
Изменить No Significant change
Необработанный LKPR 221230Z 33011KT 9999 SCT035 SCT045 14/06 Q1026 NOSIG

VFR

15°C / 7°C

[Больше]
Ветер 320º variable 290º to 350º 13kt
Видимость >10km
Погода -
Облачность Scattered Clouds 3300ft
Давление 1026
Изменить No Significant change
Необработанный LKPR 221200Z 32013KT 290V350 9999 SCT033 SCT043 15/07 Q1026 NOSIG

VFR

14°C / 7°C

[Больше]
Ветер 330º variable 290º to 350º 14kt
Видимость >10km
Погода -
Облачность Scattered Clouds 3300ft
Давление 1026
Изменить No Significant change
Необработанный LKPR 221130Z 33014KT 290V350 9999 SCT033 SCT040 14/07 Q1026 NOSIG

VFR

14°C / 7°C

[Больше]
Ветер 320º 13kt
Видимость >10km
Погода -
Облачность Scattered Clouds 3300ft
Давление 1026
Изменить No Significant change
Необработанный LKPR 221100Z 32013KT 9999 SCT033 SCT040 14/07 Q1026 NOSIG

VFR

13°C / 7°C

[Больше]
Ветер 320º 13kt
Видимость >10km
Погода -
Облачность Scattered Clouds 3200ft
Давление 1026
Изменить No Significant change
Необработанный LKPR 221030Z 32013KT 9999 SCT032 BKN040 13/07 Q1026 NOSIG

MVFR

13°C / 7°C

[Больше]
Ветер 320º 12kt
Видимость >10km
Погода -
Облачность Broken Clouds 3000ft
Давление 1026
Изменить No Significant change
Необработанный LKPR 221000Z 32012KT 9999 BKN030 BKN040 13/07 Q1026 NOSIG

VFR

13°C / 7°C

[Больше]
Ветер 320º variable 290º to 350º 13kt
Видимость >10km
Погода -
Облачность Scattered Clouds 2500ft
Давление 1026
Изменить No Significant change
Необработанный LKPR 220930Z 32013KT 290V350 9999 SCT025 BKN036 13/07 Q1026 NOSIG

MVFR

13°C / 7°C

[Больше]
Ветер 320º 14kt
Видимость >10km
Погода -
Облачность Scattered Clouds 2300ft
Давление 1026
Изменить No Significant change
Необработанный LKPR 220900Z 32014KT 9999 SCT023 BKN030 13/07 Q1026 NOSIG

MVFR

13°C / 8°C

[Больше]
Ветер 310º 14kt
Видимость >10km
Погода -
Облачность Scattered Clouds 2300ft
Давление 1026
Изменить No Significant change
Необработанный LKPR 220830Z 31014KT 9999 SCT023 BKN028 13/08 Q1026 NOSIG

MVFR

12°C / 8°C

[Больше]
Ветер 320º 13kt
Видимость >10km
Погода -
Облачность Scattered Clouds 2000ft
Давление 1026
Изменить No Significant change
Необработанный LKPR 220800Z 32013KT 9999 SCT020 BKN028 12/08 Q1026 NOSIG

MVFR

12°C / 8°C

[Больше]
Ветер 300º variable 270º to 330º 10kt
Видимость >10km
Погода -
Облачность Scattered Clouds 2000ft
Давление 1026
Изменить No Significant change
Необработанный LKPR 220730Z 30010KT 270V330 9999 SCT020 BKN028 12/08 Q1026 NOSIG

MVFR

12°C / 9°C

[Больше]
Ветер 300º 10kt
Видимость >10km
Погода -
Облачность Scattered Clouds 2200ft
Давление 1025
Изменить No Significant change
Необработанный LKPR 220700Z 30010KT 9999 SCT022 BKN030 12/09 Q1025 NOSIG

MVFR

11°C / 8°C

[Больше]
Ветер 300º 10kt
Видимость >10km
Погода Light Showers Rain 3.00mm precipitation
Облачность Vertical Visibility of 0ft.
Давление 1025
Изменить No Significant change
Необработанный LKPR 220630Z 30010KT 9999 -SHRA SCT019 BKN027 11/08 Q1025 NOSIG

MVFR

11°C / 8°C

[Больше]
Ветер 300º 10kt
Видимость >10km
Погода Light Showers Rain 3.00mm precipitation
Облачность Vertical Visibility of 0ft.
Давление 1025
Изменить -
Необработанный LKPR 220624Z 30010KT 9999 -SHRA SCT020 BKN027 11/08 Q1025 RMK REG QNH 1020

VFR

11°C / 8°C

[Больше]
Ветер 300º 11kt
Видимость >10km
Погода -
Облачность Scattered Clouds 2500ft
Давление 1025
Изменить No Significant change
Необработанный LKPR 220600Z 30011KT 9999 SCT025 BKN035 11/08 Q1025 NOSIG

VFR

11°C / 8°C

[Больше]
Ветер 300º 12kt
Видимость >10km
Погода -
Облачность Few Clouds 2500ft
Давление 1025
Изменить No Significant change
Необработанный LKPR 220530Z 30012KT 9999 FEW025 11/08 Q1025 NOSIG

VFR

11°C / 8°C

[Больше]
Ветер 300º 10kt
Видимость >10km
Погода -
Облачность Few Clouds 2500ft
Давление 1024
Изменить No Significant change
Необработанный LKPR 220500Z 30010KT 9999 FEW025 SCT048 11/08 Q1024 NOSIG

VFR

11°C / 8°C

[Больше]
Ветер 290º 12kt
Видимость >10km
Погода -
Облачность Few Clouds 1900ft
Давление 1024
Изменить -
Необработанный LKPR 220438Z 29012KT 9999 FEW019 SCT025 BKN040 11/08 Q1024 RMK REG QNH 1020

MVFR

11°C / 8°C

[Больше]
Ветер 290º 12kt
Видимость >10km
Погода -
Облачность Broken Clouds 1800ft
Давление 1024
Изменить No Significant change
Необработанный LKPR 220430Z 29012KT 9999 BKN018 BKN040 11/08 Q1024 NOSIG

MVFR

11°C / 8°C

[Больше]
Ветер 280º 11kt
Видимость >10km
Погода Light Rain 1.00mm precipitation
Облачность Vertical Visibility of 0ft.
Давление 1024
Изменить -
Необработанный LKPR 220411Z 28011KT 9999 -RA BKN018 BKN025 11/08 Q1024 RMK REG QNH 1020

MVFR

11°C / 8°C

[Больше]
Ветер 290º 10kt
Видимость >10km
Погода -
Облачность Broken Clouds 1800ft
Давление 1024
Изменить No Significant change
Необработанный LKPR 220400Z 29010KT 9999 BKN018 BKN028 11/08 Q1024 NOSIG

MVFR

11°C / 8°C

[Больше]
Ветер 290º 9kt
Видимость >10km
Погода -
Облачность Broken Clouds 1800ft
Давление 1024
Изменить -
Необработанный LKPR 220352Z 29009KT 9999 BKN018 BKN025 11/08 Q1024 RMK REG QNH 1020

MVFR

11°C / 8°C

[Больше]
Ветер 290º 9kt
Видимость >10km
Погода -
Облачность Few Clouds 1600ft
Давление 1024
Изменить -
Необработанный LKPR 220342Z 29009KT 9999 FEW016 BKN022 OVC040 11/08 Q1024 RMK REG QNH 1020

MVFR

11°C / 8°C

[Больше]
Ветер 290º variable 260º to 320º 11kt
Видимость >10km
Погода Light Rain 1.00mm precipitation
Облачность Vertical Visibility of 0ft.
Давление 1024
Изменить Temporary: Broken Clouds 1200ft.
Необработанный LKPR 220330Z 29011KT 260V320 9999 -RA BKN018 OVC022 11/08 Q1024 TEMPO BKN012

TAF для 50.1°С 14.27°В (LKPR)

From till


From till Wind 330º 12kt. Visibility 10km or more. Broken Clouds 3000ft.
Temporarly from till Wind 350º 14kt. Gust 28kt.
Becoming from till Wind 250º 8kt. Visibility 10km or more. Nil Significant Cloud.
Becoming from till Wind 240º 14kt. Visibility 10km or more. Nil Significant Cloud.
Temporarly from till Wind 260º 16kt. Gust 30kt.

Необработанный: TAF LKPR 221100Z 2212/2318 33012KT 9999 BKN030 TEMPO 2212/2216 35014G28KT BECMG 2218/2222 25008KT CAVOK BECMG 2308/2312 24014KT TEMPO 2312/2318 26016G30KT

Текущие спутниковые изображения и снимки дождя для 50.1°С 14.27°В

Указатель местности находится на 50.1°С 14.27°В. [Больше]

Спутниковое изображение в реальном времени сочетает в себе видимый свет в дневное время с инфракрасным излучением в ночное время. Ночью изображение получается не темным, так как инфракрасное излучение может обнаружить разницу температур. К сожалению, низкие облака и туман трудно отличить от температуры у поверхности земли и поэтому могут быть почти незаметны ночью. Спутниковые снимки Meteosat для Европы обновляются каждые 5 минут в режиме реального времени.Снимки GOES-16/GOES-17 (Северная и Южная Америка) и Химавари (Азия) обновляются каждые 10 минут.

Вероятность осадков оценивается по данным радиолокаторов и спутников. Спутниковые данные о возможности осадков в ночное время менее точные, чем дневные данные. Оранжевыми крестами отмечаются места,где обнаруживается молния (болееЕвропа).

Копирайт 2021 EUMETSAT / meteoblue. Данные о молниях предоставляются со стороны nowcast.

Радарный и сверхкраткосрочный прогноз осадков для 50.1°С 14.27°В

Морось
Незначительные
Умеренные
Сильные
Очень Сильные
Град

Индикатор местности находится на 50.1°С 14.27°В. Анимация показывает радар осадков за последний час, а также прогноз погоды для 1h. Морось или небольшой снег могут быть невидимы для радара. Интенсивность осадков имеет цветовую кодировку - от светло-голубого до оранжевого.